createdAt,value
2022-09-06T00:00:26.715Z,1.20
2022-09-06T00:02:54.726Z,1.30
2022-09-06T00:05:24.534Z,1.08
2022-09-06T00:07:52.089Z,1.17
2022-09-06T00:10:19.979Z,1.10
2022-09-06T00:12:47.994Z,1.30
2022-09-06T00:15:15.630Z,1.33
2022-09-06T00:17:45.283Z,1.25
2022-09-06T00:20:13.118Z,1.23
2022-09-06T00:22:40.775Z,1.15
2022-09-06T00:25:09.026Z,1.23
2022-09-06T00:27:37.284Z,1.33
2022-09-06T00:30:05.627Z,1.30
2022-09-06T00:32:33.390Z,1.10
2022-09-06T00:35:01.165Z,1.15
2022-09-06T00:37:28.881Z,1.00
2022-09-06T00:40:02.092Z,1.10
2022-09-06T00:42:29.698Z,1.17
2022-09-06T00:44:57.517Z,1.00
2022-09-06T00:47:27.539Z,1.08
2022-09-06T00:49:57.527Z,1.00
2022-09-06T00:52:26.569Z,1.05
2022-09-06T00:54:54.817Z,1.40
2022-09-06T00:57:27.359Z,1.20
2022-09-06T00:59:56.612Z,1.00
2022-09-06T01:02:24.477Z,1.10
2022-09-06T01:04:52.930Z,1.10
2022-09-06T01:07:47.576Z,1.10
2022-09-06T01:10:23.601Z,1.20
2022-09-06T01:13:15.256Z,1.40
2022-09-06T01:16:06.846Z,1.27
2022-09-06T01:18:52.973Z,1.20
2022-09-06T01:21:37.613Z,1.00
2022-09-06T01:24:39.048Z,1.05
2022-09-06T01:27:27.809Z,1.00
2022-09-06T01:30:10.652Z,1.10
2022-09-06T01:33:20.586Z,1.23
2022-09-06T01:35:58.829Z,1.20
2022-09-06T01:38:26.701Z,1.08
2022-09-06T01:40:54.483Z,1.10
2022-09-06T01:43:27.665Z,1.13
2022-09-06T01:46:24.507Z,1.20
2022-09-06T01:49:29.465Z,1.17
2022-09-06T01:52:02.993Z,1.10
2022-09-06T01:54:39.598Z,1.30
2022-09-06T01:57:39.196Z,1.30
2022-09-06T02:00:09.852Z,1.33
2022-09-06T02:02:55.572Z,1.42
2022-09-06T02:05:52.157Z,1.45
2022-09-06T02:08:29.549Z,1.40
2022-09-06T02:11:04.464Z,1.42
2022-09-06T02:13:37.265Z,1.70
2022-09-06T02:16:08.294Z,1.88
2022-09-06T02:18:45.141Z,1.90
2022-09-06T02:21:16.340Z,1.70
2022-09-06T02:23:46.375Z,1.90
2022-09-06T02:26:22.844Z,1.70
2022-09-06T02:28:50.615Z,2.00
2022-09-06T02:31:30.328Z,2.08
2022-09-06T02:33:58.314Z,1.73
2022-09-06T02:36:26.556Z,1.88
2022-09-06T02:38:54.837Z,1.70
2022-09-06T02:41:24.985Z,1.67
2022-09-06T02:43:52.575Z,1.98
2022-09-06T02:46:20.203Z,1.67
2022-09-06T02:48:47.762Z,1.92
2022-09-06T02:51:15.264Z,1.88
2022-09-06T02:53:42.839Z,2.00
2022-09-06T02:56:10.567Z,1.65
2022-09-06T02:58:38.233Z,1.80
2022-09-06T03:01:05.972Z,2.03
2022-09-06T03:03:33.613Z,1.80
2022-09-06T03:06:01.123Z,1.95
2022-09-06T03:08:33.721Z,2.35
2022-09-06T03:11:01.620Z,2.05
2022-09-06T03:13:29.360Z,2.08
2022-09-06T03:15:59.186Z,2.15
2022-09-06T03:18:29.277Z,1.73
2022-09-06T03:20:57.904Z,2.08
2022-09-06T03:23:27.764Z,1.88
2022-09-06T03:25:55.971Z,1.80
2022-09-06T03:28:23.916Z,2.10
2022-09-06T03:30:52.573Z,1.88
2022-09-06T03:33:20.912Z,2.05
2022-09-06T03:35:55.672Z,2.17
2022-09-06T03:38:24.317Z,1.90
2022-09-06T03:40:53.059Z,2.20
2022-09-06T03:43:23.227Z,2.15
2022-09-06T03:45:53.607Z,1.95
2022-09-06T03:48:23.012Z,2.08
2022-09-06T03:50:53.114Z,1.88
2022-09-06T03:53:21.512Z,2.00
2022-09-06T03:55:51.019Z,2.08
2022-09-06T03:58:21.102Z,2.20
2022-09-06T04:00:48.648Z,2.70
2022-09-06T04:03:16.484Z,2.15
2022-09-06T04:05:47.388Z,2.05
2022-09-06T04:08:14.813Z,2.85
2022-09-06T04:10:42.353Z,2.20
2022-09-06T04:13:09.979Z,2.45
2022-09-06T04:15:37.445Z,2.42
2022-09-06T04:18:09.010Z,2.55
2022-09-06T04:20:36.946Z,2.53
2022-09-06T04:23:05.882Z,2.40
2022-09-06T04:25:33.483Z,2.70
2022-09-06T04:28:00.969Z,2.60
2022-09-06T04:30:28.538Z,2.40
2022-09-06T04:32:56.043Z,2.63
2022-09-06T04:35:23.550Z,2.40
2022-09-06T04:37:51.222Z,2.50
2022-09-06T04:40:18.774Z,2.20
2022-09-06T04:42:46.574Z,2.25
2022-09-06T04:45:14.060Z,2.63
2022-09-06T04:47:41.482Z,2.22
2022-09-06T04:50:09.673Z,2.05
2022-09-06T04:52:37.403Z,2.05
2022-09-06T04:55:07.822Z,2.28
2022-09-06T04:57:35.987Z,2.92
2022-09-06T05:00:05.783Z,2.15
2022-09-06T05:02:33.303Z,2.78
2022-09-06T05:05:00.865Z,2.95
2022-09-06T05:07:28.577Z,3.10
2022-09-06T05:09:56.469Z,3.28
2022-09-06T05:12:25.818Z,2.50
2022-09-06T05:14:56.230Z,2.53
2022-09-06T05:17:25.412Z,2.88
2022-09-06T05:19:54.594Z,3.53
2022-09-06T05:22:22.770Z,2.90
2022-09-06T05:24:50.743Z,3.50
2022-09-06T05:27:19.099Z,3.28
2022-09-06T05:29:46.993Z,2.58
2022-09-06T05:32:14.513Z,3.05
2022-09-06T05:34:42.274Z,2.75
2022-09-06T05:37:09.964Z,2.60
2022-09-06T05:39:38.307Z,3.33
2022-09-06T05:42:06.946Z,2.67
2022-09-06T05:44:35.996Z,3.03
2022-09-06T05:47:05.751Z,2.90
2022-09-06T05:49:35.217Z,2.58
2022-09-06T05:52:04.576Z,2.38
2022-09-06T05:54:32.697Z,2.33
2022-09-06T05:57:00.672Z,2.30
2022-09-06T05:59:29.910Z,2.30
2022-09-06T06:01:58.763Z,1.58
2022-09-06T06:04:29.950Z,1.63
2022-09-06T06:06:58.280Z,1.65
2022-09-06T06:09:30.848Z,2.13
2022-09-06T06:12:05.376Z,1.67
2022-09-06T06:14:33.024Z,1.55
2022-09-06T06:17:03.382Z,1.52
2022-09-06T06:19:31.814Z,0.98
2022-09-06T06:21:59.661Z,1.60
2022-09-06T06:24:28.954Z,1.50
2022-09-06T06:26:56.892Z,1.40
2022-09-06T06:29:30.368Z,1.77
2022-09-06T06:31:59.276Z,1.60
2022-09-06T06:34:29.750Z,1.80
2022-09-06T06:36:58.913Z,1.40
2022-09-06T06:39:29.838Z,1.40
2022-09-06T06:41:59.137Z,1.17
2022-09-06T06:44:28.486Z,0.95
2022-09-06T06:46:59.401Z,1.50
2022-09-06T06:49:27.472Z,1.55
2022-09-06T06:51:59.422Z,1.60
2022-09-06T06:54:30.621Z,2.33
2022-09-06T06:56:59.675Z,1.42
2022-09-06T07:08:24.649Z,1.60
2022-09-06T07:10:57.842Z,1.52
2022-09-06T07:13:25.931Z,1.38
2022-09-06T07:16:06.437Z,1.80
2022-09-06T07:18:34.067Z,1.70
2022-09-06T07:26:31.538Z,1.38
2022-09-06T07:29:01.534Z,1.00
2022-09-06T07:34:20.891Z,1.15
2022-09-06T07:36:49.357Z,1.20
2022-09-06T07:39:16.864Z,1.10
2022-09-06T07:41:44.896Z,1.30
2022-09-06T07:44:12.690Z,1.30
2022-09-06T07:46:41.873Z,1.50
2022-09-06T07:49:09.871Z,1.00
2022-09-06T07:51:37.874Z,1.20
2022-09-06T07:54:38.044Z,1.30
2022-09-06T07:57:09.041Z,1.23
2022-09-06T07:59:42.870Z,1.00
2022-09-06T08:02:21.263Z,1.05
2022-09-06T08:04:51.630Z,1.00
2022-09-06T08:10:06.165Z,1.08
2022-09-06T08:12:34.016Z,0.90
2022-09-06T08:15:05.070Z,0.90
2022-09-06T08:18:09.560Z,0.85
2022-09-06T08:20:38.021Z,0.52
2022-09-06T08:23:15.426Z,1.10
2022-09-06T08:25:45.957Z,1.00
2022-09-06T08:28:13.533Z,0.93
2022-09-06T08:30:43.428Z,0.90
2022-09-06T08:33:11.563Z,0.90
2022-09-06T08:35:39.088Z,0.80
2022-09-06T08:38:06.741Z,0.93
2022-09-06T08:40:34.716Z,0.90
2022-09-06T08:43:11.911Z,1.17
2022-09-06T08:45:42.389Z,1.00
2022-09-06T08:48:10.158Z,0.90
2022-09-06T08:50:39.889Z,0.88
2022-09-06T08:53:20.845Z,1.00
2022-09-06T08:56:24.240Z,0.82
2022-09-06T08:59:14.373Z,1.05
2022-09-06T09:02:08.389Z,0.80
2022-09-06T09:04:40.990Z,0.80
2022-09-06T09:07:41.218Z,0.90
2022-09-06T09:10:16.420Z,0.68
2022-09-06T09:12:49.362Z,0.88
2022-09-06T09:15:21.950Z,1.00
2022-09-06T09:17:51.673Z,0.80
2022-09-06T09:20:20.121Z,0.95
2022-09-06T09:22:49.631Z,0.93
2022-09-06T09:25:26.757Z,0.90
2022-09-06T09:28:00.308Z,1.10
2022-09-06T09:30:49.372Z,0.90
2022-09-06T09:33:37.756Z,0.90
2022-09-06T09:42:33.227Z,0.52
2022-09-06T09:45:01.821Z,1.00
2022-09-06T09:47:33.368Z,0.90
2022-09-06T09:50:02.786Z,0.93
2022-09-06T09:52:31.979Z,0.65
2022-09-06T09:55:05.820Z,0.57
2022-09-06T09:57:53.220Z,0.80
2022-09-06T10:01:22.587Z,0.88
2022-09-06T10:09:35.361Z,0.90
2022-09-06T10:12:03.549Z,1.02
2022-09-06T10:14:42.226Z,0.90
2022-09-06T10:17:30.594Z,1.00
2022-09-06T10:20:11.631Z,1.20
2022-09-06T10:22:54.844Z,1.20
2022-09-06T10:25:39.590Z,1.70
2022-09-06T10:28:25.224Z,1.00
2022-09-06T10:31:40.638Z,1.23
2022-09-06T10:34:26.989Z,0.80
2022-09-06T10:37:18.680Z,0.90
2022-09-06T10:39:56.074Z,0.93
2022-09-06T10:42:29.733Z,0.98
2022-09-06T10:45:18.579Z,1.10
2022-09-06T10:48:15.038Z,1.10
2022-09-06T10:51:12.549Z,1.20
2022-09-06T10:53:59.202Z,1.08
2022-09-06T10:56:42.031Z,1.15
2022-09-06T11:02:38.357Z,1.10
2022-09-06T11:08:57.785Z,0.90
2022-09-06T11:12:05.138Z,0.85
2022-09-06T11:14:39.258Z,1.30
2022-09-06T11:17:39.046Z,0.95
2022-09-06T11:20:15.440Z,1.10
2022-09-06T11:23:20.314Z,1.27
2022-09-06T11:26:08.716Z,1.00
2022-09-06T11:29:09.781Z,1.20
2022-09-06T11:32:17.881Z,0.77
2022-09-06T11:35:01.659Z,1.10
2022-09-06T11:37:35.774Z,0.90
2022-09-06T11:40:27.964Z,1.33
2022-09-06T11:42:56.214Z,1.60
2022-09-06T11:45:43.475Z,1.33
2022-09-06T11:48:34.743Z,0.80
2022-09-06T11:51:16.186Z,0.85
2022-09-06T11:53:59.286Z,1.10
2022-09-06T11:56:50.219Z,1.67
2022-09-06T11:59:23.052Z,1.55
2022-09-06T12:02:01.915Z,1.70
2022-09-06T12:05:04.317Z,1.50
2022-09-06T12:07:33.938Z,1.20
2022-09-06T12:10:29.541Z,0.90
2022-09-06T12:12:58.808Z,0.70
2022-09-06T12:15:45.724Z,1.10
2022-09-06T12:18:48.580Z,1.00
2022-09-06T12:21:50.608Z,0.93
2022-09-06T12:24:47.366Z,1.00
2022-09-06T12:27:25.533Z,0.82
2022-09-06T12:30:00.798Z,1.00
2022-09-06T12:32:37.438Z,1.10
2022-09-06T12:38:02.484Z,0.90
2022-09-06T12:40:39.166Z,1.25
2022-09-06T12:43:10.184Z,1.10
2022-09-06T12:45:46.547Z,1.20
2022-09-06T12:48:32.139Z,0.95
2022-09-06T12:51:31.643Z,0.90
2022-09-06T12:54:02.315Z,0.88
2022-09-06T12:56:34.069Z,1.05
2022-09-06T12:59:23.637Z,0.90
2022-09-06T13:02:13.825Z,1.00
2022-09-06T13:04:44.084Z,0.90
2022-09-06T13:07:15.680Z,1.00
2022-09-06T13:09:47.085Z,0.90
2022-09-06T13:12:33.460Z,1.10
2022-09-06T13:15:09.221Z,0.98
2022-09-06T13:17:38.555Z,1.13
2022-09-06T13:20:29.408Z,1.10
2022-09-06T13:23:26.155Z,1.15
2022-09-06T13:25:56.178Z,1.33
2022-09-06T13:28:29.702Z,1.15
2022-09-06T13:31:23.260Z,0.93
2022-09-06T13:33:58.152Z,1.05
2022-09-06T13:36:34.335Z,1.17
2022-09-06T13:39:04.026Z,1.48
2022-09-06T13:41:40.816Z,1.30
2022-09-06T13:44:17.537Z,1.30
2022-09-06T13:46:45.159Z,1.10
2022-09-06T13:49:12.533Z,1.15
2022-09-06T13:51:43.580Z,1.13
2022-09-06T13:54:14.294Z,1.10
2022-09-06T13:56:44.875Z,1.30
2022-09-06T13:59:12.833Z,1.30
2022-09-06T14:01:43.125Z,0.95
2022-09-06T14:04:14.543Z,1.30
2022-09-06T14:06:42.469Z,1.38
2022-09-06T14:09:22.819Z,1.20
2022-09-06T14:12:13.535Z,1.33
2022-09-06T14:14:41.198Z,1.30
2022-09-06T14:17:24.195Z,1.10
2022-09-06T14:19:51.662Z,1.50
2022-09-06T14:22:19.133Z,1.08
2022-09-06T14:24:46.564Z,1.20
2022-09-06T14:27:14.255Z,1.00
2022-09-06T14:29:42.286Z,0.95
2022-09-06T14:32:09.724Z,0.93
2022-09-06T14:34:48.140Z,0.80
2022-09-06T14:37:16.141Z,0.95
2022-09-06T14:39:43.674Z,1.08
2022-09-06T14:42:11.237Z,0.80
2022-09-06T14:44:38.776Z,1.00
2022-09-06T14:47:07.534Z,1.02
2022-09-06T14:49:35.166Z,1.10
2022-09-06T14:52:02.948Z,1.73
2022-09-06T14:54:30.559Z,1.00
2022-09-06T14:56:58.048Z,0.85
2022-09-06T14:59:25.559Z,0.80
2022-09-06T15:01:53.810Z,1.10
2022-09-06T15:04:22.100Z,0.90
2022-09-06T15:06:49.800Z,1.00
2022-09-06T15:09:17.691Z,0.70
2022-09-06T15:11:50.976Z,0.90
2022-09-06T15:14:27.495Z,1.00
2022-09-06T15:16:58.157Z,0.90
2022-09-06T15:19:28.004Z,1.02
2022-09-06T15:21:57.527Z,0.80
2022-09-06T15:24:25.412Z,0.80
2022-09-06T15:26:55.916Z,0.90
2022-09-06T15:29:23.605Z,1.02
2022-09-06T15:31:52.134Z,0.93
2022-09-06T15:34:21.714Z,0.90
2022-09-06T15:36:50.240Z,0.80
2022-09-06T15:39:18.188Z,0.75
2022-09-06T15:41:46.355Z,0.82
2022-09-06T15:44:16.251Z,0.80
2022-09-06T15:47:00.862Z,0.90
2022-09-06T15:49:34.507Z,1.05
2022-09-06T15:52:06.545Z,1.00
2022-09-06T15:54:52.593Z,1.00
2022-09-06T15:57:21.262Z,1.00
2022-09-06T15:59:48.877Z,1.00
2022-09-06T16:02:16.659Z,0.90
2022-09-06T16:04:45.535Z,1.20
2022-09-06T16:07:13.145Z,1.00
2022-09-06T16:09:40.798Z,1.05
2022-09-06T16:12:09.809Z,0.90
2022-09-06T16:14:38.935Z,1.00
2022-09-06T16:17:06.969Z,1.13
2022-09-06T16:19:34.975Z,1.35
2022-09-06T16:22:03.153Z,1.10
2022-09-06T16:24:30.950Z,1.08
2022-09-06T16:26:58.553Z,1.20
2022-09-06T16:29:26.438Z,1.35
2022-09-06T16:31:59.889Z,1.35
2022-09-06T16:34:27.657Z,1.10
2022-09-06T16:36:57.115Z,1.17
2022-09-06T16:39:24.902Z,1.23
2022-09-06T16:41:52.682Z,1.30
2022-09-06T16:44:21.219Z,1.17
2022-09-06T16:46:50.150Z,1.30
2022-09-06T16:49:19.564Z,1.40
2022-09-06T16:51:48.582Z,1.30
2022-09-06T16:54:17.658Z,1.13
2022-09-06T16:56:45.570Z,1.40
2022-09-06T16:59:15.698Z,1.25
2022-09-06T17:01:44.553Z,1.40
2022-09-06T17:04:13.541Z,1.30
2022-09-06T17:06:44.990Z,1.30
2022-09-06T17:09:19.462Z,1.40
2022-09-06T17:11:50.175Z,1.33
2022-09-06T17:14:18.618Z,1.30
2022-09-06T17:17:04.770Z,1.60
2022-09-06T17:19:36.958Z,1.30
2022-09-06T17:22:05.612Z,1.83
2022-09-06T17:24:33.139Z,1.38
2022-09-06T17:27:01.007Z,2.35
2022-09-06T17:29:29.082Z,1.60
2022-09-06T17:31:56.945Z,1.98
2022-09-06T17:34:24.872Z,1.00
2022-09-06T17:36:56.492Z,3.17
2022-09-06T17:39:24.175Z,3.00
2022-09-06T17:41:54.468Z,1.95
2022-09-06T17:44:25.584Z,1.30
2022-09-06T17:47:11.985Z,1.00
2022-09-06T17:49:41.253Z,1.20
2022-09-06T17:52:08.816Z,1.13
2022-09-06T17:54:36.369Z,2.20
2022-09-06T17:57:04.051Z,1.27
2022-09-06T17:59:35.138Z,1.80
2022-09-06T18:02:04.746Z,6.40
2022-09-06T18:04:32.741Z,1.20
2022-09-06T18:07:00.244Z,1.25
2022-09-06T18:09:28.868Z,1.13
2022-09-06T18:11:57.249Z,1.17
2022-09-06T18:14:24.765Z,1.70
2022-09-06T18:16:53.095Z,1.42
2022-09-06T18:19:22.222Z,1.15
2022-09-06T18:21:49.748Z,1.23
2022-09-06T18:24:17.601Z,1.00
2022-09-06T18:26:45.215Z,0.90
2022-09-06T18:29:16.825Z,1.30
2022-09-06T18:31:44.903Z,1.30
2022-09-06T18:34:12.747Z,1.10
2022-09-06T18:36:40.926Z,0.93
2022-09-06T18:39:08.915Z,0.90
2022-09-06T18:41:54.910Z,1.20
2022-09-06T18:44:22.675Z,1.40
2022-09-06T18:46:50.585Z,2.35
2022-09-06T18:49:18.876Z,1.40
2022-09-06T18:51:46.621Z,1.73
2022-09-06T18:54:14.929Z,2.13
2022-09-06T18:56:46.598Z,1.83
2022-09-06T18:59:14.753Z,1.92
2022-09-06T19:01:43.455Z,1.60
2022-09-06T19:04:12.224Z,1.02
2022-09-06T19:06:41.872Z,1.48
2022-09-06T19:09:12.741Z,1.60
2022-09-06T19:11:45.671Z,1.33
2022-09-06T19:14:13.904Z,1.85
2022-09-06T19:16:42.258Z,1.30
2022-09-06T19:19:11.823Z,1.02
2022-09-06T19:21:42.034Z,1.20
2022-09-06T19:24:11.795Z,1.30
2022-09-06T19:26:42.860Z,1.40
2022-09-06T19:29:15.907Z,1.70
2022-09-06T19:31:44.595Z,1.10
2022-09-06T19:34:13.835Z,1.40
2022-09-06T19:36:41.586Z,1.10
2022-09-06T19:39:13.392Z,1.33
2022-09-06T19:41:46.858Z,1.50
2022-09-06T19:44:16.691Z,1.40
2022-09-06T19:46:47.012Z,1.08
2022-09-06T19:49:19.836Z,1.35
2022-09-06T19:51:48.988Z,1.10
2022-09-06T19:54:17.566Z,1.10
2022-09-06T19:56:46.256Z,1.00
2022-09-06T19:59:15.431Z,1.00
2022-09-06T20:01:44.862Z,1.00
2022-09-06T20:04:14.197Z,1.00
2022-09-06T20:06:42.138Z,1.08
2022-09-06T20:09:11.115Z,1.00
2022-09-06T20:11:41.179Z,1.00
2022-09-06T20:14:10.763Z,1.10
2022-09-06T20:16:41.889Z,1.00
2022-09-06T20:19:11.453Z,1.00
2022-09-06T20:21:39.094Z,1.00
2022-09-06T20:24:06.902Z,1.00
2022-09-06T20:26:34.694Z,0.90
2022-09-06T20:29:03.547Z,0.90
2022-09-06T20:31:32.411Z,1.00
2022-09-06T20:34:01.989Z,1.20
2022-09-06T20:36:30.374Z,0.95
2022-09-06T20:38:57.938Z,1.00
2022-09-06T20:41:27.410Z,0.90
2022-09-06T20:43:56.972Z,1.00
2022-09-06T20:46:30.303Z,1.00
2022-09-06T20:49:00.326Z,1.10
2022-09-06T20:51:28.008Z,1.00
2022-09-06T20:53:58.720Z,0.80
2022-09-06T20:56:34.790Z,0.85
2022-09-06T20:59:05.058Z,1.13
2022-09-06T21:01:35.265Z,1.10
2022-09-06T21:04:05.225Z,1.08
2022-09-06T21:06:35.826Z,1.00
2022-09-06T21:09:12.684Z,0.93
2022-09-06T21:11:41.185Z,1.00
2022-09-06T21:14:09.608Z,1.10
2022-09-06T21:16:38.141Z,0.90
2022-09-06T21:19:07.485Z,0.90
2022-09-06T21:21:36.203Z,1.10
2022-09-06T21:24:06.162Z,0.90
2022-09-06T21:26:34.716Z,0.98
2022-09-06T21:29:02.788Z,0.90
2022-09-06T21:31:36.390Z,0.90
2022-09-06T21:34:07.070Z,1.00
2022-09-06T21:36:36.653Z,1.00
2022-09-06T21:39:15.618Z,0.85
2022-09-06T21:41:44.350Z,0.88
2022-09-06T21:44:12.867Z,1.13
2022-09-06T21:46:41.477Z,1.05
2022-09-06T21:49:12.390Z,0.90
2022-09-06T21:51:40.619Z,0.90
2022-09-06T21:54:09.131Z,0.90
2022-09-06T21:56:38.669Z,1.00
2022-09-06T21:59:07.705Z,0.95
2022-09-06T22:01:37.383Z,1.00
2022-09-06T22:04:06.597Z,0.95
2022-09-06T22:06:35.719Z,0.80
2022-09-06T22:09:10.894Z,0.90
2022-09-06T22:11:40.679Z,1.05
2022-09-06T22:14:10.918Z,0.80
2022-09-06T22:16:40.184Z,0.90
2022-09-06T22:19:09.258Z,0.82
2022-09-06T22:21:38.838Z,1.00
2022-09-06T22:24:09.247Z,0.95
2022-09-06T22:26:38.606Z,0.98
2022-09-06T22:29:08.638Z,1.10
2022-09-06T22:31:37.006Z,0.93
2022-09-06T22:34:05.082Z,0.90
2022-09-06T22:36:33.799Z,0.90
2022-09-06T22:39:01.589Z,0.98
2022-09-06T22:41:31.281Z,0.93
2022-09-06T22:44:02.563Z,0.90
2022-09-06T22:46:31.024Z,1.10
2022-09-06T22:48:59.498Z,1.00
2022-09-06T22:51:27.436Z,1.20
2022-09-06T22:53:55.072Z,1.10
2022-09-06T22:56:23.649Z,1.10
2022-09-06T22:58:51.158Z,0.90
2022-09-06T23:01:18.888Z,1.10
2022-09-06T23:03:47.188Z,1.17
2022-09-06T23:06:14.652Z,0.82
2022-09-06T23:08:42.718Z,1.02
2022-09-06T23:11:12.856Z,1.00
2022-09-06T23:13:44.490Z,1.10
2022-09-06T23:16:19.468Z,1.10
2022-09-06T23:18:47.950Z,1.00
2022-09-06T23:21:18.689Z,0.93
2022-09-06T23:23:47.952Z,1.10
2022-09-06T23:26:18.079Z,0.98
2022-09-06T23:28:46.331Z,1.00
2022-09-06T23:31:17.296Z,1.00
2022-09-06T23:33:44.823Z,0.95
2022-09-06T23:36:15.034Z,1.00
2022-09-06T23:38:43.079Z,1.10
2022-09-06T23:41:12.069Z,1.10
2022-09-06T23:43:41.185Z,1.00
2022-09-06T23:46:12.705Z,1.00
2022-09-06T23:48:41.189Z,1.10
2022-09-06T23:51:09.218Z,1.00
2022-09-06T23:53:37.009Z,1.10
2022-09-06T23:56:05.488Z,1.17
2022-09-06T23:58:33.496Z,1.10
